sensor_id;sensor_type;location;lat;lon;timestamp;P1;durP1;ratioP1;P2;durP2;ratioP2
15102;SDS011;7652;53.584;9.998;2023-02-01T00:00:15;8.73;;;2.10;;
15102;SDS011;7652;53.584;9.998;2023-02-01T00:03:19;10.00;;;2.63;;
15102;SDS011;7652;53.584;9.998;2023-02-01T00:06:22;10.77;;;2.63;;
15102;SDS011;7652;53.584;9.998;2023-02-01T00:09:25;8.97;;;1.97;;
15102;SDS011;7652;53.584;9.998;2023-02-01T00:12:29;16.83;;;2.73;;
15102;SDS011;7652;53.584;9.998;2023-02-01T00:15:33;11.17;;;2.20;;
15102;SDS011;7652;53.584;9.998;2023-02-01T00:18:36;11.03;;;2.43;;
15102;SDS011;7652;53.584;9.998;2023-02-01T00:21:38;13.07;;;2.60;;
15102;SDS011;7652;53.584;9.998;2023-02-01T00:24:42;15.83;;;2.57;;
15102;SDS011;7652;53.584;9.998;2023-02-01T00:27:49;12.30;;;2.80;;
15102;SDS011;7652;53.584;9.998;2023-02-01T00:30:55;16.17;;;3.20;;
15102;SDS011;7652;53.584;9.998;2023-02-01T00:33:59;13.93;;;2.50;;
15102;SDS011;7652;53.584;9.998;2023-02-01T00:37:02;13.43;;;2.23;;
15102;SDS011;7652;53.584;9.998;2023-02-01T00:40:05;15.73;;;3.97;;
15102;SDS011;7652;53.584;9.998;2023-02-01T00:43:11;15.80;;;2.50;;
15102;SDS011;7652;53.584;9.998;2023-02-01T00:46:14;10.77;;;2.23;;
15102;SDS011;7652;53.584;9.998;2023-02-01T00:49:19;19.67;;;3.33;;
15102;SDS011;7652;53.584;9.998;2023-02-01T00:52:22;15.10;;;2.97;;
15102;SDS011;7652;53.584;9.998;2023-02-01T00:55:24;12.30;;;2.50;;
15102;SDS011;7652;53.584;9.998;2023-02-01T00:58:29;13.50;;;3.20;;
15102;SDS011;7652;53.584;9.998;2023-02-01T01:01:32;15.30;;;3.23;;
15102;SDS011;7652;53.584;9.998;2023-02-01T01:04:35;14.10;;;3.23;;
15102;SDS011;7652;53.584;9.998;2023-02-01T01:07:38;15.97;;;3.80;;
15102;SDS011;7652;53.584;9.998;2023-02-01T01:10:42;18.63;;;3.17;;
15102;SDS011;7652;53.584;9.998;2023-02-01T01:13:47;16.33;;;4.07;;
15102;SDS011;7652;53.584;9.998;2023-02-01T01:16:51;15.13;;;3.03;;
15102;SDS011;7652;53.584;9.998;2023-02-01T01:19:54;16.00;;;3.53;;
15102;SDS011;7652;53.584;9.998;2023-02-01T01:23:00;15.07;;;3.30;;
15102;SDS011;7652;53.584;9.998;2023-02-01T01:26:04;17.27;;;3.60;;
15102;SDS011;7652;53.584;9.998;2023-02-01T01:29:09;12.53;;;3.10;;
15102;SDS011;7652;53.584;9.998;2023-02-01T01:32:12;18.13;;;3.60;;
15102;SDS011;7652;53.584;9.998;2023-02-01T01:35:15;17.27;;;3.33;;
15102;SDS011;7652;53.584;9.998;2023-02-01T01:38:19;13.77;;;3.10;;
15102;SDS011;7652;53.584;9.998;2023-02-01T01:41:22;16.10;;;3.17;;
15102;SDS011;7652;53.584;9.998;2023-02-01T01:48:03;17.63;;;3.10;;
15102;SDS011;7652;53.584;9.998;2023-02-01T01:51:09;20.53;;;3.63;;
15102;SDS011;7652;53.584;9.998;2023-02-01T01:54:16;14.23;;;3.10;;
15102;SDS011;7652;53.584;9.998;2023-02-01T01:57:23;18.00;;;3.40;;
15102;SDS011;7652;53.584;9.998;2023-02-01T02:00:30;17.43;;;3.30;;
15102;SDS011;7652;53.584;9.998;2023-02-01T02:03:34;14.53;;;3.67;;
15102;SDS011;7652;53.584;9.998;2023-02-01T02:06:42;15.43;;;4.37;;
15102;SDS011;7652;53.584;9.998;2023-02-01T02:09:49;19.50;;;3.83;;
15102;SDS011;7652;53.584;9.998;2023-02-01T02:13:01;16.80;;;3.47;;
15102;SDS011;7652;53.584;9.998;2023-02-01T02:16:16;13.27;;;2.77;;
15102;SDS011;7652;53.584;9.998;2023-02-01T02:20:13;19.90;;;3.20;;
15102;SDS011;7652;53.584;9.998;2023-02-01T02:23:45;16.37;;;3.23;;
15102;SDS011;7652;53.584;9.998;2023-02-01T02:27:11;25.33;;;4.03;;
15102;SDS011;7652;53.584;9.998;2023-02-01T02:30:36;20.30;;;3.67;;
15102;SDS011;7652;53.584;9.998;2023-02-01T02:34:03;23.03;;;4.10;;
15102;SDS011;7652;53.584;9.998;2023-02-01T02:37:17;20.10;;;3.13;;
15102;SDS011;7652;53.584;9.998;2023-02-01T02:40:28;18.43;;;3.37;;
15102;SDS011;7652;53.584;9.998;2023-02-01T02:43:37;12.80;;;3.40;;
15102;SDS011;7652;53.584;9.998;2023-02-01T02:47:11;17.03;;;3.73;;
15102;SDS011;7652;53.584;9.998;2023-02-01T02:50:32;12.60;;;3.13;;
15102;SDS011;7652;53.584;9.998;2023-02-01T02:54:02;27.50;;;3.73;;
15102;SDS011;7652;53.584;9.998;2023-02-01T02:57:28;14.10;;;2.97;;
15102;SDS011;7652;53.584;9.998;2023-02-01T03:00:52;21.50;;;3.10;;
15102;SDS011;7652;53.584;9.998;2023-02-01T03:04:14;19.27;;;2.93;;
15102;SDS011;7652;53.584;9.998;2023-02-01T03:10:56;15.23;;;2.80;;
15102;SDS011;7652;53.584;9.998;2023-02-01T03:14:02;14.73;;;3.43;;
15102;SDS011;7652;53.584;9.998;2023-02-01T03:17:08;16.23;;;3.47;;
15102;SDS011;7652;53.584;9.998;2023-02-01T03:20:15;22.17;;;3.37;;
15102;SDS011;7652;53.584;9.998;2023-02-01T03:23:24;17.17;;;3.53;;
15102;SDS011;7652;53.584;9.998;2023-02-01T03:26:33;12.20;;;3.33;;
15102;SDS011;7652;53.584;9.998;2023-02-01T03:29:47;19.20;;;3.60;;
15102;SDS011;7652;53.584;9.998;2023-02-01T03:32:54;20.60;;;4.00;;
15102;SDS011;7652;53.584;9.998;2023-02-01T03:36:12;8.87;;;2.23;;
15102;SDS011;7652;53.584;9.998;2023-02-01T03:39:22;8.87;;;1.67;;
15102;SDS011;7652;53.584;9.998;2023-02-01T03:42:32;7.57;;;1.87;;
15102;SDS011;7652;53.584;9.998;2023-02-01T03:45:38;6.33;;;1.47;;
15102;SDS011;7652;53.584;9.998;2023-02-01T03:48:43;7.33;;;2.03;;
15102;SDS011;7652;53.584;9.998;2023-02-01T03:51:47;5.97;;;2.07;;
15102;SDS011;7652;53.584;9.998;2023-02-01T03:54:53;13.13;;;2.00;;
15102;SDS011;7652;53.584;9.998;2023-02-01T03:57:58;7.20;;;1.43;;
15102;SDS011;7652;53.584;9.998;2023-02-01T04:01:05;8.70;;;2.07;;
15102;SDS011;7652;53.584;9.998;2023-02-01T04:04:08;11.73;;;2.57;;
15102;SDS011;7652;53.584;9.998;2023-02-01T04:07:12;14.10;;;2.23;;
15102;SDS011;7652;53.584;9.998;2023-02-01T04:10:16;10.13;;;2.00;;
15102;SDS011;7652;53.584;9.998;2023-02-01T04:13:20;9.93;;;2.17;;
15102;SDS011;7652;53.584;9.998;2023-02-01T04:16:23;6.17;;;1.63;;
15102;SDS011;7652;53.584;9.998;2023-02-01T04:19:26;7.97;;;2.20;;
15102;SDS011;7652;53.584;9.998;2023-02-01T04:22:29;11.67;;;2.30;;
15102;SDS011;7652;53.584;9.998;2023-02-01T04:25:33;11.97;;;1.97;;
15102;SDS011;7652;53.584;9.998;2023-02-01T04:28:36;11.37;;;2.40;;
15102;SDS011;7652;53.584;9.998;2023-02-01T04:31:39;8.50;;;2.13;;
15102;SDS011;7652;53.584;9.998;2023-02-01T04:34:42;16.77;;;2.43;;
15102;SDS011;7652;53.584;9.998;2023-02-01T04:37:46;6.00;;;2.17;;
15102;SDS011;7652;53.584;9.998;2023-02-01T04:40:50;15.03;;;2.40;;
15102;SDS011;7652;53.584;9.998;2023-02-01T04:43:53;11.77;;;1.60;;
15102;SDS011;7652;53.584;9.998;2023-02-01T04:46:56;4.80;;;1.63;;
15102;SDS011;7652;53.584;9.998;2023-02-01T04:49:59;4.63;;;1.47;;
15102;SDS011;7652;53.584;9.998;2023-02-01T04:53:02;5.57;;;1.70;;
15102;SDS011;7652;53.584;9.998;2023-02-01T04:56:07;8.63;;;1.40;;
15102;SDS011;7652;53.584;9.998;2023-02-01T04:59:10;9.70;;;1.60;;
15102;SDS011;7652;53.584;9.998;2023-02-01T05:02:14;7.10;;;1.23;;
15102;SDS011;7652;53.584;9.998;2023-02-01T05:05:17;6.33;;;1.33;;
15102;SDS011;7652;53.584;9.998;2023-02-01T05:08:20;2.77;;;1.20;;
15102;SDS011;7652;53.584;9.998;2023-02-01T05:11:25;6.10;;;1.40;;
15102;SDS011;7652;53.584;9.998;2023-02-01T05:14:46;1.30;;;0.60;;
15102;SDS011;7652;53.584;9.998;2023-02-01T05:17:50;3.37;;;0.40;;
15102;SDS011;7652;53.584;9.998;2023-02-01T05:20:53;1.20;;;0.47;;
15102;SDS011;7652;53.584;9.998;2023-02-01T05:23:56;2.30;;;0.70;;
15102;SDS011;7652;53.584;9.998;2023-02-01T05:27:22;0.77;;;0.50;;
15102;SDS011;7652;53.584;9.998;2023-02-01T05:30:25;1.30;;;0.60;;
15102;SDS011;7652;53.584;9.998;2023-02-01T05:33:28;1.47;;;0.40;;
15102;SDS011;7652;53.584;9.998;2023-02-01T05:36:31;0.40;;;0.40;;
15102;SDS011;7652;53.584;9.998;2023-02-01T05:39:34;0.50;;;0.50;;
15102;SDS011;7652;53.584;9.998;2023-02-01T05:42:38;1.10;;;0.60;;
15102;SDS011;7652;53.584;9.998;2023-02-01T05:45:41;2.33;;;0.50;;
15102;SDS011;7652;53.584;9.998;2023-02-01T05:48:44;2.73;;;0.70;;
15102;SDS011;7652;53.584;9.998;2023-02-01T05:51:47;1.30;;;0.60;;
15102;SDS011;7652;53.584;9.998;2023-02-01T05:54:50;1.47;;;0.20;;
15102;SDS011;7652;53.584;9.998;2023-02-01T05:57:55;1.63;;;0.40;;
15102;SDS011;7652;53.584;9.998;2023-02-01T06:00:58;1.37;;;0.50;;
15102;SDS011;7652;53.584;9.998;2023-02-01T06:04:02;1.97;;;0.40;;
15102;SDS011;7652;53.584;9.998;2023-02-01T06:07:05;1.20;;;0.50;;
15102;SDS011;7652;53.584;9.998;2023-02-01T06:10:10;2.33;;;0.50;;
15102;SDS011;7652;53.584;9.998;2023-02-01T06:13:14;1.43;;;0.50;;
15102;SDS011;7652;53.584;9.998;2023-02-01T06:16:17;0.97;;;0.50;;
15102;SDS011;7652;53.584;9.998;2023-02-01T06:19:20;2.10;;;0.80;;
15102;SDS011;7652;53.584;9.998;2023-02-01T06:22:23;2.87;;;0.60;;
15102;SDS011;7652;53.584;9.998;2023-02-01T06:25:26;3.60;;;0.87;;
15102;SDS011;7652;53.584;9.998;2023-02-01T06:28:31;1.93;;;0.70;;
15102;SDS011;7652;53.584;9.998;2023-02-01T06:31:35;0.87;;;0.67;;
15102;SDS011;7652;53.584;9.998;2023-02-01T06:34:38;4.90;;;1.40;;
15102;SDS011;7652;53.584;9.998;2023-02-01T06:37:41;5.40;;;1.43;;
15102;SDS011;7652;53.584;9.998;2023-02-01T06:40:44;2.30;;;0.87;;
15102;SDS011;7652;53.584;9.998;2023-02-01T06:43:56;3.20;;;1.13;;
15102;SDS011;7652;53.584;9.998;2023-02-01T06:46:59;2.77;;;0.93;;
15102;SDS011;7652;53.584;9.998;2023-02-01T06:50:02;5.67;;;1.60;;
15102;SDS011;7652;53.584;9.998;2023-02-01T06:53:06;7.00;;;1.47;;
15102;SDS011;7652;53.584;9.998;2023-02-01T06:56:08;7.90;;;1.93;;
15102;SDS011;7652;53.584;9.998;2023-02-01T06:59:13;6.33;;;1.77;;
15102;SDS011;7652;53.584;9.998;2023-02-01T07:02:17;5.33;;;1.57;;
15102;SDS011;7652;53.584;9.998;2023-02-01T07:05:20;7.20;;;2.20;;
15102;SDS011;7652;53.584;9.998;2023-02-01T07:08:24;8.30;;;1.57;;
15102;SDS011;7652;53.584;9.998;2023-02-01T07:11:27;8.67;;;1.80;;
15102;SDS011;7652;53.584;9.998;2023-02-01T07:14:31;10.97;;;2.60;;
15102;SDS011;7652;53.584;9.998;2023-02-01T07:17:34;8.70;;;1.67;;
15102;SDS011;7652;53.584;9.998;2023-02-01T07:20:37;7.47;;;2.13;;
15102;SDS011;7652;53.584;9.998;2023-02-01T07:23:40;9.00;;;2.03;;
15102;SDS011;7652;53.584;9.998;2023-02-01T07:26:43;10.03;;;2.23;;
15102;SDS011;7652;53.584;9.998;2023-02-01T07:29:47;14.37;;;2.63;;
15102;SDS011;7652;53.584;9.998;2023-02-01T07:32:50;13.80;;;2.17;;
15102;SDS011;7652;53.584;9.998;2023-02-01T07:35:53;10.77;;;2.10;;
15102;SDS011;7652;53.584;9.998;2023-02-01T07:38:57;14.90;;;1.93;;
15102;SDS011;7652;53.584;9.998;2023-02-01T07:42:00;7.23;;;1.63;;
15102;SDS011;7652;53.584;9.998;2023-02-01T07:45:05;13.60;;;2.37;;
15102;SDS011;7652;53.584;9.998;2023-02-01T07:48:22;11.63;;;1.97;;
15102;SDS011;7652;53.584;9.998;2023-02-01T07:51:26;7.63;;;2.27;;
15102;SDS011;7652;53.584;9.998;2023-02-01T07:54:29;14.87;;;2.90;;
15102;SDS011;7652;53.584;9.998;2023-02-01T07:57:32;15.20;;;2.83;;
15102;SDS011;7652;53.584;9.998;2023-02-01T08:00:36;16.63;;;2.67;;
15102;SDS011;7652;53.584;9.998;2023-02-01T08:03:57;15.67;;;3.00;;
15102;SDS011;7652;53.584;9.998;2023-02-01T08:07:01;8.90;;;2.17;;
15102;SDS011;7652;53.584;9.998;2023-02-01T08:10:04;15.40;;;3.47;;
15102;SDS011;7652;53.584;9.998;2023-02-01T08:13:11;15.07;;;2.83;;
15102;SDS011;7652;53.584;9.998;2023-02-01T08:16:16;14.40;;;2.90;;
15102;SDS011;7652;53.584;9.998;2023-02-01T08:19:21;14.93;;;3.40;;
15102;SDS011;7652;53.584;9.998;2023-02-01T08:22:24;14.33;;;3.30;;
15102;SDS011;7652;53.584;9.998;2023-02-01T08:25:27;12.30;;;2.50;;
15102;SDS011;7652;53.584;9.998;2023-02-01T08:28:30;19.37;;;3.40;;
15102;SDS011;7652;53.584;9.998;2023-02-01T08:31:34;23.20;;;4.07;;
15102;SDS011;7652;53.584;9.998;2023-02-01T08:34:37;19.63;;;3.60;;
15102;SDS011;7652;53.584;9.998;2023-02-01T08:37:43;17.63;;;3.43;;
15102;SDS011;7652;53.584;9.998;2023-02-01T08:40:49;11.03;;;2.63;;
15102;SDS011;7652;53.584;9.998;2023-02-01T08:43:52;18.67;;;2.57;;
15102;SDS011;7652;53.584;9.998;2023-02-01T08:46:57;7.03;;;1.73;;
15102;SDS011;7652;53.584;9.998;2023-02-01T08:50:00;7.73;;;2.00;;
15102;SDS011;7652;53.584;9.998;2023-02-01T08:53:03;13.27;;;2.37;;
15102;SDS011;7652;53.584;9.998;2023-02-01T08:56:06;8.23;;;1.50;;
15102;SDS011;7652;53.584;9.998;2023-02-01T08:59:09;12.13;;;2.57;;
15102;SDS011;7652;53.584;9.998;2023-02-01T09:02:14;10.27;;;1.73;;
15102;SDS011;7652;53.584;9.998;2023-02-01T09:05:17;11.40;;;2.10;;
15102;SDS011;7652;53.584;9.998;2023-02-01T09:08:23;12.07;;;2.43;;
15102;SDS011;7652;53.584;9.998;2023-02-01T09:11:26;13.10;;;2.87;;
15102;SDS011;7652;53.584;9.998;2023-02-01T09:14:29;15.27;;;2.57;;
15102;SDS011;7652;53.584;9.998;2023-02-01T09:17:34;13.23;;;2.83;;
15102;SDS011;7652;53.584;9.998;2023-02-01T09:20:37;12.00;;;3.33;;
15102;SDS011;7652;53.584;9.998;2023-02-01T09:23:40;8.63;;;2.33;;
15102;SDS011;7652;53.584;9.998;2023-02-01T09:26:43;18.93;;;2.70;;
15102;SDS011;7652;53.584;9.998;2023-02-01T09:29:46;13.30;;;2.90;;
15102;SDS011;7652;53.584;9.998;2023-02-01T09:32:54;17.33;;;3.27;;
15102;SDS011;7652;53.584;9.998;2023-02-01T09:35:57;11.47;;;2.20;;
15102;SDS011;7652;53.584;9.998;2023-02-01T09:39:02;14.00;;;2.33;;
15102;SDS011;7652;53.584;9.998;2023-02-01T09:42:08;9.67;;;2.53;;
15102;SDS011;7652;53.584;9.998;2023-02-01T09:45:22;17.60;;;3.00;;
15102;SDS011;7652;53.584;9.998;2023-02-01T09:48:34;11.10;;;2.83;;
15102;SDS011;7652;53.584;9.998;2023-02-01T09:51:41;14.47;;;3.47;;
15102;SDS011;7652;53.584;9.998;2023-02-01T09:54:49;14.97;;;3.20;;
15102;SDS011;7652;53.584;9.998;2023-02-01T09:57:59;18.87;;;3.60;;
15102;SDS011;7652;53.584;9.998;2023-02-01T10:01:05;14.67;;;3.30;;
15102;SDS011;7652;53.584;9.998;2023-02-01T10:04:17;13.47;;;2.80;;
15102;SDS011;7652;53.584;9.998;2023-02-01T10:07:23;14.40;;;2.77;;
15102;SDS011;7652;53.584;9.998;2023-02-01T10:10:35;14.13;;;3.13;;
15102;SDS011;7652;53.584;9.998;2023-02-01T10:13:47;12.80;;;2.83;;
15102;SDS011;7652;53.584;9.998;2023-02-01T10:16:59;10.90;;;2.37;;
15102;SDS011;7652;53.584;9.998;2023-02-01T10:20:09;9.80;;;2.40;;
15102;SDS011;7652;53.584;9.998;2023-02-01T10:23:26;12.43;;;2.30;;
15102;SDS011;7652;53.584;9.998;2023-02-01T10:26:47;16.93;;;2.77;;
15102;SDS011;7652;53.584;9.998;2023-02-01T10:29:57;12.30;;;2.27;;
15102;SDS011;7652;53.584;9.998;2023-02-01T10:33:07;11.20;;;3.03;;
15102;SDS011;7652;53.584;9.998;2023-02-01T10:36:21;13.50;;;2.43;;
15102;SDS011;7652;53.584;9.998;2023-02-01T10:39:31;18.70;;;2.93;;
15102;SDS011;7652;53.584;9.998;2023-02-01T10:42:34;10.33;;;2.23;;
15102;SDS011;7652;53.584;9.998;2023-02-01T10:45:37;10.77;;;2.93;;
15102;SDS011;7652;53.584;9.998;2023-02-01T10:48:43;13.93;;;3.37;;
15102;SDS011;7652;53.584;9.998;2023-02-01T10:51:50;14.07;;;3.13;;
15102;SDS011;7652;53.584;9.998;2023-02-01T10:54:56;12.57;;;2.33;;
15102;SDS011;7652;53.584;9.998;2023-02-01T10:58:19;14.43;;;3.00;;
15102;SDS011;7652;53.584;9.998;2023-02-01T11:01:28;10.87;;;2.23;;
15102;SDS011;7652;53.584;9.998;2023-02-01T11:04:35;13.73;;;3.20;;
15102;SDS011;7652;53.584;9.998;2023-02-01T11:07:45;8.23;;;2.37;;
15102;SDS011;7652;53.584;9.998;2023-02-01T11:10:56;14.80;;;3.10;;
15102;SDS011;7652;53.584;9.998;2023-02-01T11:14:02;12.27;;;2.40;;
15102;SDS011;7652;53.584;9.998;2023-02-01T11:17:17;10.73;;;3.00;;
15102;SDS011;7652;53.584;9.998;2023-02-01T11:20:33;13.10;;;2.50;;
15102;SDS011;7652;53.584;9.998;2023-02-01T11:23:43;17.40;;;2.00;;
15102;SDS011;7652;53.584;9.998;2023-02-01T11:26:47;16.00;;;2.33;;
15102;SDS011;7652;53.584;9.998;2023-02-01T11:29:51;13.27;;;2.80;;
15102;SDS011;7652;53.584;9.998;2023-02-01T11:32:57;11.10;;;2.40;;
15102;SDS011;7652;53.584;9.998;2023-02-01T11:36:05;11.93;;;1.93;;
15102;SDS011;7652;53.584;9.998;2023-02-01T11:39:16;14.80;;;2.60;;
15102;SDS011;7652;53.584;9.998;2023-02-01T11:42:27;15.17;;;2.70;;
15102;SDS011;7652;53.584;9.998;2023-02-01T11:45:31;12.73;;;2.63;;
15102;SDS011;7652;53.584;9.998;2023-02-01T11:48:36;11.27;;;2.50;;
15102;SDS011;7652;53.584;9.998;2023-02-01T11:51:42;14.90;;;1.97;;
15102;SDS011;7652;53.584;9.998;2023-02-01T11:54:57;14.00;;;3.03;;
15102;SDS011;7652;53.584;9.998;2023-02-01T11:58:19;21.53;;;2.70;;
15102;SDS011;7652;53.584;9.998;2023-02-01T12:01:37;6.73;;;1.93;;
15102;SDS011;7652;53.584;9.998;2023-02-01T12:08:21;6.10;;;1.80;;
15102;SDS011;7652;53.584;9.998;2023-02-01T12:11:46;9.77;;;1.90;;
15102;SDS011;7652;53.584;9.998;2023-02-01T12:15:04;6.87;;;1.40;;
15102;SDS011;7652;53.584;9.998;2023-02-01T12:18:26;6.07;;;1.63;;
15102;SDS011;7652;53.584;9.998;2023-02-01T12:21:47;6.83;;;1.57;;
15102;SDS011;7652;53.584;9.998;2023-02-01T12:25:13;6.23;;;1.43;;
15102;SDS011;7652;53.584;9.998;2023-02-01T12:28:42;7.50;;;1.67;;
15102;SDS011;7652;53.584;9.998;2023-02-01T12:32:15;7.20;;;2.07;;
15102;SDS011;7652;53.584;9.998;2023-02-01T12:35:37;5.00;;;1.20;;
15102;SDS011;7652;53.584;9.998;2023-02-01T12:38:51;9.23;;;1.40;;
15102;SDS011;7652;53.584;9.998;2023-02-01T12:41:58;4.50;;;1.30;;
15102;SDS011;7652;53.584;9.998;2023-02-01T12:45:11;1.40;;;0.73;;
15102;SDS011;7652;53.584;9.998;2023-02-01T12:48:23;2.37;;;0.80;;
15102;SDS011;7652;53.584;9.998;2023-02-01T12:51:31;3.83;;;0.40;;
15102;SDS011;7652;53.584;9.998;2023-02-01T12:54:38;2.20;;;0.73;;
15102;SDS011;7652;53.584;9.998;2023-02-01T12:57:49;1.50;;;0.50;;
15102;SDS011;7652;53.584;9.998;2023-02-01T13:00:57;1.33;;;0.60;;
15102;SDS011;7652;53.584;9.998;2023-02-01T13:04:03;0.80;;;0.50;;
15102;SDS011;7652;53.584;9.998;2023-02-01T13:07:14;1.20;;;0.50;;
15102;SDS011;7652;53.584;9.998;2023-02-01T13:10:23;0.73;;;0.47;;
15102;SDS011;7652;53.584;9.998;2023-02-01T13:13:35;1.50;;;0.40;;
15102;SDS011;7652;53.584;9.998;2023-02-01T13:16:46;1.03;;;0.43;;
15102;SDS011;7652;53.584;9.998;2023-02-01T13:19:52;3.07;;;0.70;;
15102;SDS011;7652;53.584;9.998;2023-02-01T13:23:00;1.90;;;0.73;;
15102;SDS011;7652;53.584;9.998;2023-02-01T13:26:06;2.67;;;0.73;;
15102;SDS011;7652;53.584;9.998;2023-02-01T13:29:10;1.80;;;0.80;;
15102;SDS011;7652;53.584;9.998;2023-02-01T13:32:20;0.70;;;0.57;;
15102;SDS011;7652;53.584;9.998;2023-02-01T13:35:59;2.07;;;0.90;;
15102;SDS011;7652;53.584;9.998;2023-02-01T13:39:30;0.93;;;0.70;;
15102;SDS011;7652;53.584;9.998;2023-02-01T13:42:48;1.10;;;0.60;;
15102;SDS011;7652;53.584;9.998;2023-02-01T13:45:54;3.50;;;0.80;;
15102;SDS011;7652;53.584;9.998;2023-02-01T13:49:01;1.17;;;0.80;;
15102;SDS011;7652;53.584;9.998;2023-02-01T13:52:05;1.50;;;0.90;;
15102;SDS011;7652;53.584;9.998;2023-02-01T13:55:14;1.37;;;0.70;;
15102;SDS011;7652;53.584;9.998;2023-02-01T13:58:32;2.83;;;0.80;;
15102;SDS011;7652;53.584;9.998;2023-02-01T14:01:37;1.47;;;0.87;;
15102;SDS011;7652;53.584;9.998;2023-02-01T14:04:48;1.27;;;0.80;;
15102;SDS011;7652;53.584;9.998;2023-02-01T14:14:45;1.37;;;0.47;;
15102;SDS011;7652;53.584;9.998;2023-02-01T14:17:50;0.90;;;0.30;;
15102;SDS011;7652;53.584;9.998;2023-02-01T14:21:00;0.50;;;0.50;;
15102;SDS011;7652;53.584;9.998;2023-02-01T14:24:25;1.53;;;0.50;;
15102;SDS011;7652;53.584;9.998;2023-02-01T14:27:29;2.70;;;0.63;;
15102;SDS011;7652;53.584;9.998;2023-02-01T14:30:47;3.40;;;0.83;;
15102;SDS011;7652;53.584;9.998;2023-02-01T14:33:53;2.50;;;0.90;;
15102;SDS011;7652;53.584;9.998;2023-02-01T14:37:02;10.83;;;1.30;;
15102;SDS011;7652;53.584;9.998;2023-02-01T14:40:14;3.80;;;0.80;;
15102;SDS011;7652;53.584;9.998;2023-02-01T14:50:35;10.47;;;1.30;;
15102;SDS011;7652;53.584;9.998;2023-02-01T14:53:41;8.10;;;2.07;;
15102;SDS011;7652;53.584;9.998;2023-02-01T14:56:45;3.77;;;1.10;;
15102;SDS011;7652;53.584;9.998;2023-02-01T14:59:48;6.63;;;1.27;;
15102;SDS011;7652;53.584;9.998;2023-02-01T15:03:02;4.83;;;1.43;;
15102;SDS011;7652;53.584;9.998;2023-02-01T15:06:26;4.17;;;1.40;;
15102;SDS011;7652;53.584;9.998;2023-02-01T15:09:36;6.03;;;1.23;;
15102;SDS011;7652;53.584;9.998;2023-02-01T15:12:41;7.30;;;1.37;;
15102;SDS011;7652;53.584;9.998;2023-02-01T15:16:01;7.43;;;1.70;;
15102;SDS011;7652;53.584;9.998;2023-02-01T15:19:10;6.43;;;1.63;;
15102;SDS011;7652;53.584;9.998;2023-02-01T15:22:18;7.23;;;1.53;;
15102;SDS011;7652;53.584;9.998;2023-02-01T15:25:22;4.57;;;1.77;;
15102;SDS011;7652;53.584;9.998;2023-02-01T15:28:27;4.23;;;1.53;;
15102;SDS011;7652;53.584;9.998;2023-02-01T15:31:31;5.87;;;1.90;;
15102;SDS011;7652;53.584;9.998;2023-02-01T15:34:46;8.87;;;1.53;;
15102;SDS011;7652;53.584;9.998;2023-02-01T15:37:50;4.03;;;1.93;;
15102;SDS011;7652;53.584;9.998;2023-02-01T15:40:54;6.70;;;1.33;;
15102;SDS011;7652;53.584;9.998;2023-02-01T15:44:07;6.23;;;1.70;;
15102;SDS011;7652;53.584;9.998;2023-02-01T15:47:20;7.10;;;1.40;;
15102;SDS011;7652;53.584;9.998;2023-02-01T15:50:30;10.53;;;1.73;;
15102;SDS011;7652;53.584;9.998;2023-02-01T15:53:34;4.33;;;1.40;;
15102;SDS011;7652;53.584;9.998;2023-02-01T15:56:37;9.13;;;1.70;;
15102;SDS011;7652;53.584;9.998;2023-02-01T15:59:43;11.33;;;2.33;;
15102;SDS011;7652;53.584;9.998;2023-02-01T16:02:51;8.53;;;1.80;;
15102;SDS011;7652;53.584;9.998;2023-02-01T16:05:57;9.27;;;1.70;;
15102;SDS011;7652;53.584;9.998;2023-02-01T16:09:03;10.33;;;2.10;;
15102;SDS011;7652;53.584;9.998;2023-02-01T16:12:20;10.03;;;2.37;;
15102;SDS011;7652;53.584;9.998;2023-02-01T16:15:29;8.90;;;2.07;;
15102;SDS011;7652;53.584;9.998;2023-02-01T16:18:33;11.53;;;2.53;;
15102;SDS011;7652;53.584;9.998;2023-02-01T16:21:37;12.03;;;1.80;;
15102;SDS011;7652;53.584;9.998;2023-02-01T16:24:40;10.27;;;2.30;;
15102;SDS011;7652;53.584;9.998;2023-02-01T16:27:43;12.50;;;2.00;;
15102;SDS011;7652;53.584;9.998;2023-02-01T16:30:47;8.70;;;1.90;;
15102;SDS011;7652;53.584;9.998;2023-02-01T16:33:50;9.77;;;1.90;;
15102;SDS011;7652;53.584;9.998;2023-02-01T16:36:55;9.80;;;2.50;;
15102;SDS011;7652;53.584;9.998;2023-02-01T16:39:58;19.93;;;2.50;;
15102;SDS011;7652;53.584;9.998;2023-02-01T16:43:01;15.40;;;3.17;;
15102;SDS011;7652;53.584;9.998;2023-02-01T16:46:04;11.97;;;2.43;;
15102;SDS011;7652;53.584;9.998;2023-02-01T16:49:15;12.07;;;2.60;;
15102;SDS011;7652;53.584;9.998;2023-02-01T16:52:22;9.17;;;2.00;;
15102;SDS011;7652;53.584;9.998;2023-02-01T16:55:28;12.93;;;2.60;;
15102;SDS011;7652;53.584;9.998;2023-02-01T16:58:31;17.40;;;2.67;;
15102;SDS011;7652;53.584;9.998;2023-02-01T17:01:34;13.97;;;2.73;;
15102;SDS011;7652;53.584;9.998;2023-02-01T17:04:37;16.53;;;3.13;;
15102;SDS011;7652;53.584;9.998;2023-02-01T17:07:42;10.43;;;2.77;;
15102;SDS011;7652;53.584;9.998;2023-02-01T17:10:45;14.10;;;3.33;;
15102;SDS011;7652;53.584;9.998;2023-02-01T17:13:48;16.67;;;3.17;;
15102;SDS011;7652;53.584;9.998;2023-02-01T17:16:51;13.30;;;3.27;;
15102;SDS011;7652;53.584;9.998;2023-02-01T17:19:55;19.00;;;3.30;;
15102;SDS011;7652;53.584;9.998;2023-02-01T17:23:00;11.40;;;3.47;;
15102;SDS011;7652;53.584;9.998;2023-02-01T17:26:03;15.80;;;3.30;;
15102;SDS011;7652;53.584;9.998;2023-02-01T17:29:06;14.00;;;2.83;;
15102;SDS011;7652;53.584;9.998;2023-02-01T17:32:12;19.07;;;3.57;;
15102;SDS011;7652;53.584;9.998;2023-02-01T17:35:19;7.27;;;2.93;;
15102;SDS011;7652;53.584;9.998;2023-02-01T17:38:26;17.47;;;2.93;;
15102;SDS011;7652;53.584;9.998;2023-02-01T17:41:29;16.00;;;3.63;;
15102;SDS011;7652;53.584;9.998;2023-02-01T17:44:32;16.30;;;3.50;;
15102;SDS011;7652;53.584;9.998;2023-02-01T17:47:35;13.63;;;3.30;;
15102;SDS011;7652;53.584;9.998;2023-02-01T17:50:39;15.20;;;4.33;;
15102;SDS011;7652;53.584;9.998;2023-02-01T17:53:43;13.13;;;3.30;;
15102;SDS011;7652;53.584;9.998;2023-02-01T17:56:47;18.13;;;3.03;;
15102;SDS011;7652;53.584;9.998;2023-02-01T17:59:51;10.13;;;2.70;;
15102;SDS011;7652;53.584;9.998;2023-02-01T18:02:54;15.73;;;3.50;;
15102;SDS011;7652;53.584;9.998;2023-02-01T18:05:57;17.27;;;2.87;;
15102;SDS011;7652;53.584;9.998;2023-02-01T18:09:03;11.97;;;2.80;;
15102;SDS011;7652;53.584;9.998;2023-02-01T18:12:09;14.57;;;2.37;;
15102;SDS011;7652;53.584;9.998;2023-02-01T18:15:17;11.60;;;2.13;;
15102;SDS011;7652;53.584;9.998;2023-02-01T18:18:22;17.83;;;3.70;;
15102;SDS011;7652;53.584;9.998;2023-02-01T18:21:25;13.73;;;3.23;;
15102;SDS011;7652;53.584;9.998;2023-02-01T18:24:34;17.83;;;3.37;;
15102;SDS011;7652;53.584;9.998;2023-02-01T18:27:37;14.93;;;3.67;;
15102;SDS011;7652;53.584;9.998;2023-02-01T18:30:40;19.43;;;3.00;;
15102;SDS011;7652;53.584;9.998;2023-02-01T18:33:45;17.07;;;4.30;;
15102;SDS011;7652;53.584;9.998;2023-02-01T18:36:49;15.50;;;3.00;;
15102;SDS011;7652;53.584;9.998;2023-02-01T18:39:54;10.63;;;2.63;;
15102;SDS011;7652;53.584;9.998;2023-02-01T18:42:57;16.67;;;3.00;;
15102;SDS011;7652;53.584;9.998;2023-02-01T18:46:00;17.13;;;3.23;;
15102;SDS011;7652;53.584;9.998;2023-02-01T18:49:03;16.17;;;2.83;;
15102;SDS011;7652;53.584;9.998;2023-02-01T18:52:06;18.47;;;3.17;;
15102;SDS011;7652;53.584;9.998;2023-02-01T18:55:10;15.03;;;3.40;;
15102;SDS011;7652;53.584;9.998;2023-02-01T18:58:13;15.03;;;2.77;;
15102;SDS011;7652;53.584;9.998;2023-02-01T19:01:18;18.57;;;3.43;;
15102;SDS011;7652;53.584;9.998;2023-02-01T19:04:23;15.43;;;2.67;;
15102;SDS011;7652;53.584;9.998;2023-02-01T19:07:27;12.97;;;2.90;;
15102;SDS011;7652;53.584;9.998;2023-02-01T19:10:31;11.93;;;3.13;;
15102;SDS011;7652;53.584;9.998;2023-02-01T19:13:36;14.43;;;3.40;;
15102;SDS011;7652;53.584;9.998;2023-02-01T19:16:39;13.17;;;2.70;;
15102;SDS011;7652;53.584;9.998;2023-02-01T19:19:42;12.63;;;2.87;;